»·PEaware :: N5491J KIZA-KSMX

N5491J :: KIZA-KSMX

FLIGHT INFORMATION

Flight Status: Arrived
Operator: Privately registered:
United States
More flights under this callsign
Pilot: David L. (16466)
Aircraft: CESSNA 172 SKYHAWK
(C172)
More flights by this aircraft type
Origin: KIZA Santa Ynez
United States
Destination: KSMX Santa Maria Pub/Capt Hancock
United States
More flights between these airports :: More routes between these airports
Route: RZS
File this flight plan on PilotEdge
Remarks:
Altitude:
(Current/Filed)
6,000ft
Speed:
(Current/Filed)
110kts
Departed: 08-Oct-17 10:06 AM
Arrived: 08-Oct-17 10:37 AM
Distance/Time
Traveled:
25nm/0:31
Distance/Time
To Go:
Arrived

Flight Plot

Page will automatically refresh every two minutes.

Flight plan parsing failed; only flown route is shown


Map Options




Map Legend


Flown Route
Filed Route
Departure Airport
Arrival Airport
Navaid (VOR, NDB)
Fix

Horizontal Profiles

Position Reports

Time Latitude Longitude Heading Altitude Ground
Speed
08-Oct-17 09:47 34.608287 -120.074875 5 674ft 0kts
08-Oct-17 09:48 34.608288 -120.074875 5 674ft 0kts
08-Oct-17 09:49 34.608289 -120.074875 5 674ft 0kts
08-Oct-17 09:50 34.608289 -120.074875 5 674ft 0kts
08-Oct-17 09:51 34.608290 -120.074874 5 674ft 0kts
08-Oct-17 09:52 34.608291 -120.074874 5 674ft 0kts
08-Oct-17 09:53 34.608291 -120.074874 5 674ft 0kts
08-Oct-17 09:54 34.608292 -120.074874 5 674ft 0kts
08-Oct-17 09:55 34.608293 -120.074874 5 674ft 0kts
08-Oct-17 09:56 34.608294 -120.074874 5 674ft 0kts
08-Oct-17 09:57 34.608294 -120.074874 5 674ft 0kts
08-Oct-17 09:58 34.608295 -120.074874 5 674ft 0kts
08-Oct-17 09:59 34.608296 -120.074874 5 674ft 0kts
08-Oct-17 10:00 34.608296 -120.074874 5 674ft 0kts
08-Oct-17 10:01 34.608297 -120.074874 5 674ft 0kts
08-Oct-17 10:02 34.608298 -120.074873 5 674ft 0kts
08-Oct-17 10:03 34.608320 -120.074875 349 674ft 2kts
08-Oct-17 10:04 34.607556 -120.077115 277 674ft 9kts
08-Oct-17 10:05 34.607713 -120.079833 197 674ft 0kts
08-Oct-17 10:06 34.607712 -120.079833 197 674ft 0kts
08-Oct-17 10:07 34.607711 -120.079833 197 674ft 0kts
08-Oct-17 10:08 34.607711 -120.079834 197 674ft 0kts
08-Oct-17 10:09 34.607687 -120.079842 196 674ft 1kts
08-Oct-17 10:10 34.605649 -120.066174 98 876ft 78kts
08-Oct-17 10:11 34.598580 -120.041041 117 1633ft 82kts
08-Oct-17 10:12 34.588461 -120.016111 114 2410ft 80kts
08-Oct-17 10:13 34.579885 -119.989951 111 3095ft 84kts
08-Oct-17 10:14 34.570896 -119.963792 111 3772ft 83kts
08-Oct-17 10:15 34.561547 -119.937440 110 4388ft 85kts
08-Oct-17 10:16 34.552220 -119.909874 110 4939ft 90kts
08-Oct-17 10:17 34.544009 -119.879261 105 5451ft 98kts
08-Oct-17 10:18 34.543337 -119.851948 335 5934ft 76kts
08-Oct-17 10:19 34.558686 -119.872650 303 6040ft 99kts
08-Oct-17 10:20 34.572242 -119.904143 297 6002ft 108kts
08-Oct-17 10:21 34.587879 -119.935380 298 6000ft 108kts
08-Oct-17 10:22 34.602970 -119.967067 297 6000ft 108kts
08-Oct-17 10:23 34.618004 -119.998878 297 6000ft 108kts
08-Oct-17 10:24 34.633074 -120.030852 298 6000ft 109kts
08-Oct-17 10:25 34.648549 -120.063986 299 5505ft 114kts
08-Oct-17 10:26 34.663182 -120.095883 301 4688ft 108kts
08-Oct-17 10:27 34.676901 -120.124058 302 4597ft 94kts
08-Oct-17 10:28 34.690469 -120.151269 302 4651ft 94kts
08-Oct-17 10:29 34.704277 -120.178992 302 4594ft 98kts
08-Oct-17 10:30 34.717790 -120.206179 302 4626ft 93kts
08-Oct-17 10:31 34.731178 -120.233126 302 4641ft 93kts
08-Oct-17 10:32 34.744673 -120.260276 302 4611ft 95kts
08-Oct-17 10:33 34.759084 -120.287095 311 4452ft 96kts
08-Oct-17 10:34 34.778387 -120.309460 315 3565ft 97kts
08-Oct-17 10:35 34.797623 -120.332106 316 3007ft 93kts
08-Oct-17 10:36 34.816771 -120.354975 314 3052ft 101kts
08-Oct-17 10:37 34.836120 -120.378296 315 2521ft 89kts
08-Oct-17 10:38 34.854128 -120.399412 318 1694ft 81kts
08-Oct-17 10:39 34.870446 -120.418996 312 1689ft 84kts
08-Oct-17 10:40 34.886907 -120.438302 313 617ft 76kts
08-Oct-17 10:42 34.896120 -120.449845 324 264ft 9kts
08-Oct-17 10:43 34.897047 -120.450021 356 264ft 0kts
08-Oct-17 10:44 34.897339 -120.449229 135 264ft 8kts
08-Oct-17 10:45 34.898248 -120.447440 43 264ft 0kts

Navigation Log

Ident Type
Flight plan parsing failed, navigation log unavailable